createdAt,value
2024-01-21T00:01:51.239Z,101496.50
2024-01-21T00:04:18.041Z,101496.22
2024-01-21T00:06:44.652Z,101498.72
2024-01-21T00:09:11.707Z,101504.84
2024-01-21T00:11:38.287Z,101501.72
2024-01-21T00:14:04.937Z,101489.03
2024-01-21T00:16:31.432Z,101491.59
2024-01-21T00:18:57.976Z,101486.06
2024-01-21T00:21:24.591Z,101478.16
2024-01-21T00:23:51.120Z,101477.72
2024-01-21T00:26:17.783Z,101481.00
2024-01-21T00:28:44.331Z,101478.31
2024-01-21T00:31:10.924Z,101485.94
2024-01-21T00:33:37.542Z,101488.75
2024-01-21T00:36:04.364Z,101497.25
2024-01-21T00:38:30.917Z,101506.22
2024-01-21T00:40:57.425Z,101503.34
2024-01-21T00:43:23.943Z,101499.34
2024-01-21T00:45:50.538Z,101500.97
2024-01-21T00:48:17.194Z,101503.69
2024-01-21T00:50:43.906Z,101515.91
2024-01-21T00:53:10.401Z,101509.16
2024-01-21T00:55:36.946Z,101508.75
2024-01-21T00:58:03.620Z,101511.09
2024-01-21T01:00:30.303Z,101514.84
2024-01-21T01:02:57.004Z,101512.31
2024-01-21T01:05:23.704Z,101511.41
2024-01-21T01:07:50.784Z,101505.13
2024-01-21T01:10:17.294Z,101505.44
2024-01-21T01:12:43.896Z,101508.44
2024-01-21T01:15:12.485Z,101509.47
2024-01-21T01:17:39.159Z,101511.09
2024-01-21T01:20:06.762Z,101514.53
2024-01-21T01:22:33.255Z,101516.19
2024-01-21T01:24:59.847Z,101517.97
2024-01-21T01:27:27.701Z,101517.06
2024-01-21T01:29:54.496Z,101503.34
2024-01-21T01:32:20.971Z,101505.13
2024-01-21T01:34:47.696Z,101504.53
2024-01-21T01:37:14.976Z,101506.34
2024-01-21T01:39:41.572Z,101508.44
2024-01-21T01:42:08.453Z,101509.00
2024-01-21T01:44:35.125Z,101506.78
2024-01-21T01:47:02.085Z,101503.19
2024-01-21T01:49:29.041Z,101502.13
2024-01-21T01:51:57.933Z,101504.41
2024-01-21T01:54:29.300Z,101491.88
2024-01-21T01:56:56.005Z,101495.31
2024-01-21T01:59:23.475Z,101494.25
2024-01-21T02:01:50.081Z,101498.28
2024-01-21T02:04:16.891Z,101498.88
2024-01-21T02:06:43.753Z,101507.38
2024-01-21T02:09:10.825Z,101504.84
2024-01-21T02:11:37.457Z,101497.97
2024-01-21T02:14:04.095Z,101518.81
2024-01-21T02:16:30.649Z,101512.13
2024-01-21T02:18:58.156Z,101514.66
2024-01-21T02:21:24.814Z,101523.75
2024-01-21T02:23:51.400Z,101517.47
2024-01-21T02:26:17.938Z,101514.66
2024-01-21T02:28:44.486Z,101518.66
2024-01-21T02:31:11.101Z,101510.75
2024-01-21T02:33:37.705Z,101508.53
2024-01-21T02:36:05.216Z,101509.09
2024-01-21T02:38:31.724Z,101505.78
2024-01-21T02:40:58.263Z,101517.28
2024-01-21T02:43:24.754Z,101507.16
2024-01-21T02:45:51.302Z,101515.03
2024-01-21T02:48:17.895Z,101518.78
2024-01-21T02:50:44.506Z,101519.97
2024-01-21T02:53:11.009Z,101518.66
2024-01-21T02:55:37.515Z,101526.41
2024-01-21T02:58:04.176Z,101532.53
2024-01-21T03:00:30.709Z,101538.50
2024-01-21T03:02:59.934Z,101543.38
2024-01-21T03:05:26.591Z,101540.28
2024-01-21T03:07:53.176Z,101546.81
2024-01-21T03:10:19.650Z,101545.19
2024-01-21T03:12:46.187Z,101548.91
2024-01-21T03:15:12.812Z,101552.47
2024-01-21T03:17:39.396Z,101560.72
2024-01-21T03:20:06.932Z,101555.47
2024-01-21T03:22:33.476Z,101555.19
2024-01-21T03:25:00.217Z,101556.06
2024-01-21T03:27:26.933Z,101558.13
2024-01-21T03:29:53.509Z,101557.41
2024-01-21T03:32:20.031Z,101559.47
2024-01-21T03:34:46.574Z,101567.06
2024-01-21T03:37:13.155Z,101553.34
2024-01-21T03:39:39.781Z,101559.25
2024-01-21T03:42:06.365Z,101551.19
2024-01-21T03:44:32.894Z,101555.06
2024-01-21T03:47:01.543Z,101557.03
2024-01-21T03:49:31.319Z,101562.56
2024-01-21T03:51:57.938Z,101571.78
2024-01-21T03:54:24.558Z,101565.81
2024-01-21T03:56:51.103Z,101569.25
2024-01-21T03:59:17.618Z,101565.88
2024-01-21T04:01:45.140Z,101566.13
2024-01-21T04:04:13.014Z,101572.09
2024-01-21T04:06:44.098Z,101573.00
2024-01-21T04:09:11.635Z,101573.31
2024-01-21T04:11:38.222Z,101577.78
2024-01-21T04:14:04.770Z,101574.53
2024-01-21T04:16:32.285Z,101578.53
2024-01-21T04:18:58.919Z,101570.38
2024-01-21T04:21:25.603Z,101579.59
2024-01-21T04:23:52.132Z,101572.91
2024-01-21T04:26:18.722Z,101572.47
2024-01-21T04:28:45.226Z,101568.25
2024-01-21T04:31:11.855Z,101569.13
2024-01-21T04:33:38.561Z,101567.19
2024-01-21T04:36:05.738Z,101570.75
2024-01-21T04:38:32.424Z,101561.94
2024-01-21T04:40:58.961Z,101557.91
2024-01-21T04:43:25.894Z,101556.84
2024-01-21T04:45:52.663Z,101559.50
2024-01-21T04:48:19.767Z,101561.00
2024-01-21T04:50:46.429Z,101559.69
2024-01-21T04:53:13.379Z,101568.81
2024-01-21T04:55:39.944Z,101564.41
2024-01-21T04:58:06.483Z,101572.44
2024-01-21T05:00:33.113Z,101572.44
2024-01-21T05:02:59.733Z,101568.69
2024-01-21T05:05:26.208Z,101567.63
2024-01-21T05:07:53.191Z,101569.56
2024-01-21T05:10:19.714Z,101568.69
2024-01-21T05:12:46.356Z,101567.63
2024-01-21T05:15:12.971Z,101574.63
2024-01-21T05:17:39.513Z,101583.53
2024-01-21T05:20:09.640Z,101585.03
2024-01-21T05:22:36.711Z,101588.00
2024-01-21T05:25:04.745Z,101593.06
2024-01-21T05:27:33.321Z,101594.56
2024-01-21T05:29:59.836Z,101599.72
2024-01-21T05:32:26.620Z,101613.13
2024-01-21T05:34:53.198Z,101615.81
2024-01-21T05:37:19.842Z,101619.03
2024-01-21T05:39:46.442Z,101621.84
2024-01-21T05:42:13.036Z,101623.34
2024-01-21T05:44:39.729Z,101626.97
2024-01-21T05:47:06.378Z,101628.72
2024-01-21T05:49:33.576Z,101621.75
2024-01-21T05:52:00.355Z,101627.16
2024-01-21T05:54:27.824Z,101633.19
2024-01-21T05:56:54.476Z,101631.16
2024-01-21T05:59:22.081Z,101638.59
2024-01-21T06:01:50.336Z,101637.88
2024-01-21T06:04:17.554Z,101642.16
2024-01-21T06:06:44.992Z,101652.56
2024-01-21T06:09:12.121Z,101641.94
2024-01-21T06:11:41.108Z,101651.63
2024-01-21T06:14:08.092Z,101660.75
2024-01-21T06:16:34.652Z,101657.50
2024-01-21T06:19:01.285Z,101664.41
2024-01-21T06:21:27.881Z,101663.00
2024-01-21T06:23:54.557Z,101661.31
2024-01-21T06:26:23.444Z,101674.59
2024-01-21T06:28:51.009Z,101663.44
2024-01-21T06:31:19.487Z,101672.69
2024-01-21T06:33:46.343Z,101664.28
2024-01-21T06:36:13.086Z,101672.84
2024-01-21T06:38:40.071Z,101674.38
2024-01-21T06:41:06.576Z,101679.22
2024-01-21T06:43:33.197Z,101674.03
2024-01-21T06:45:59.758Z,101672.50
2024-01-21T06:48:26.616Z,101675.31
2024-01-21T06:50:54.305Z,101684.06
2024-01-21T06:53:21.408Z,101681.53
2024-01-21T06:55:47.938Z,101669.97
2024-01-21T06:58:14.455Z,101677.44
2024-01-21T07:00:41.053Z,101673.63
2024-01-21T07:03:07.669Z,101685.94
2024-01-21T07:05:34.337Z,101685.69
2024-01-21T07:08:00.810Z,101685.13
2024-01-21T07:10:27.312Z,101672.63
2024-01-21T07:12:54.136Z,101671.59
2024-01-21T07:15:20.899Z,101671.88
2024-01-21T07:17:47.747Z,101682.00
2024-01-21T07:20:14.451Z,101682.19
2024-01-21T07:22:41.091Z,101693.19
2024-01-21T07:25:08.194Z,101686.59
2024-01-21T07:27:35.855Z,101692.69
2024-01-21T07:30:02.507Z,101692.25
2024-01-21T07:32:29.044Z,101691.88
2024-01-21T07:34:55.612Z,101686.47
2024-01-21T07:37:22.198Z,101697.44
2024-01-21T07:39:49.989Z,101690.34
2024-01-21T07:42:16.585Z,101694.69
2024-01-21T07:44:43.101Z,101695.94
2024-01-21T07:47:09.588Z,101691.06
2024-01-21T07:49:36.193Z,101699.34
2024-01-21T07:52:02.811Z,101708.31
2024-01-21T07:54:29.347Z,101702.66
2024-01-21T07:56:56.104Z,101708.09
2024-01-21T07:59:22.614Z,101701.56
2024-01-21T08:01:49.147Z,101708.16
2024-01-21T08:04:15.739Z,101698.44
2024-01-21T08:06:43.005Z,101691.28
2024-01-21T08:09:09.780Z,101695.78
2024-01-21T08:11:36.278Z,101700.69
2024-01-21T08:14:02.814Z,101713.25
2024-01-21T08:16:29.356Z,101709.06
2024-01-21T08:18:56.140Z,101707.25
2024-01-21T08:21:22.730Z,101717.41
2024-01-21T08:23:49.246Z,101706.34
2024-01-21T08:26:17.537Z,101713.78
2024-01-21T08:28:44.409Z,101715.88
2024-01-21T08:31:10.882Z,101724.69
2024-01-21T08:33:37.685Z,101729.13
2024-01-21T08:36:04.799Z,101730.44
2024-01-21T08:38:31.307Z,101739.25
2024-01-21T08:40:57.889Z,101734.25
2024-01-21T08:43:24.418Z,101731.81
2024-01-21T08:45:50.966Z,101742.88
2024-01-21T08:48:17.673Z,101748.50
2024-01-21T08:50:44.316Z,101749.06
2024-01-21T08:53:11.273Z,101750.69
2024-01-21T08:55:37.850Z,101752.91
2024-01-21T08:58:04.743Z,101752.28
2024-01-21T09:00:31.363Z,101763.63
2024-01-21T09:02:58.066Z,101763.44
2024-01-21T09:05:24.597Z,101761.13
2024-01-21T09:07:51.112Z,101773.06
2024-01-21T09:10:18.346Z,101775.25
2024-01-21T09:12:44.865Z,101779.31
2024-01-21T09:15:12.065Z,101779.44
2024-01-21T09:17:38.789Z,101775.38
2024-01-21T09:20:05.963Z,101774.13
2024-01-21T09:22:32.645Z,101769.28
2024-01-21T09:24:59.271Z,101771.09
2024-01-21T09:27:26.001Z,101774.19
2024-01-21T09:29:52.598Z,101763.78
2024-01-21T09:32:19.044Z,101771.13
2024-01-21T09:34:46.888Z,101768.56
2024-01-21T09:37:13.557Z,101764.81
2024-01-21T09:39:40.159Z,101774.81
2024-01-21T09:42:10.794Z,101771.03
2024-01-21T09:44:37.551Z,101773.41
2024-01-21T09:47:04.309Z,101778.41
2024-01-21T09:49:33.004Z,101780.94
2024-01-21T09:52:02.384Z,101778.53
2024-01-21T09:54:29.277Z,101778.06
2024-01-21T09:56:55.979Z,101779.97
2024-01-21T09:59:23.176Z,101779.50
2024-01-21T10:01:49.966Z,101777.19
2024-01-21T10:04:16.833Z,101771.47
2024-01-21T10:06:44.223Z,101772.09
2024-01-21T10:09:18.174Z,101774.19
2024-01-21T10:11:54.036Z,101771.38
2024-01-21T10:14:20.625Z,101785.13
2024-01-21T10:16:47.853Z,101773.13
2024-01-21T10:19:27.368Z,101774.72
2024-01-21T10:22:21.510Z,101779.06
2024-01-21T10:24:49.986Z,101767.19
2024-01-21T10:27:17.204Z,101771.56
2024-01-21T10:29:45.697Z,101768.44
2024-01-21T10:32:14.636Z,101773.94
2024-01-21T10:34:44.655Z,101770.03
2024-01-21T10:37:11.343Z,101768.50
2024-01-21T10:39:38.490Z,101769.13
2024-01-21T10:42:09.182Z,101783.19
2024-01-21T10:44:37.037Z,101773.53
2024-01-21T10:47:06.525Z,101770.47
2024-01-21T10:49:33.817Z,101766.38
2024-01-21T10:52:01.356Z,101775.97
2024-01-21T10:54:30.956Z,101781.22
2024-01-21T10:56:59.083Z,101780.19
2024-01-21T10:59:25.855Z,101774.03
2024-01-21T11:01:52.861Z,101775.22
2024-01-21T11:04:22.867Z,101771.28
2024-01-21T11:06:51.630Z,101771.28
2024-01-21T11:09:25.005Z,101774.84
2024-01-21T11:11:56.107Z,101778.44
2024-01-21T11:14:37.448Z,101772.69
2024-01-21T11:17:12.037Z,101780.63
2024-01-21T11:19:43.809Z,101780.00
2024-01-21T11:22:16.391Z,101769.81
2024-01-21T11:24:44.960Z,101772.88
2024-01-21T11:27:19.861Z,101764.47
2024-01-21T11:29:49.125Z,101765.22
2024-01-21T11:32:17.492Z,101759.38
2024-01-21T11:34:46.662Z,101761.13
2024-01-21T11:37:17.091Z,101768.28
2024-01-21T11:39:44.760Z,101759.59
2024-01-21T11:42:11.400Z,101766.28
2024-01-21T11:44:39.036Z,101770.38
2024-01-21T11:47:07.085Z,101765.50
2024-01-21T11:49:36.029Z,101769.88
2024-01-21T11:52:08.072Z,101763.13
2024-01-21T11:54:37.466Z,101766.69
2024-01-21T11:57:04.882Z,101760.44
2024-01-21T11:59:32.394Z,101756.72
2024-01-21T12:02:00.125Z,101752.41
2024-01-21T12:04:28.380Z,101748.53
2024-01-21T12:06:55.886Z,101746.78
2024-01-21T12:09:24.817Z,101750.00
2024-01-21T12:11:52.088Z,101740.53
2024-01-21T12:14:21.591Z,101744.38
2024-01-21T12:16:52.881Z,101745.91
2024-01-21T12:19:20.013Z,101740.53
2024-01-21T12:21:46.842Z,101743.34
2024-01-21T12:24:13.566Z,101742.97
2024-01-21T12:26:40.074Z,101741.94
2024-01-21T12:29:11.759Z,101752.56
2024-01-21T12:31:39.848Z,101748.19
2024-01-21T12:34:08.824Z,101743.47
2024-01-21T12:36:46.465Z,101740.28
2024-01-21T12:39:15.423Z,101749.63
2024-01-21T12:41:41.994Z,101751.00
2024-01-21T12:44:08.623Z,101746.03
2024-01-21T12:46:35.940Z,101745.66
2024-01-21T12:49:04.495Z,101739.41
2024-01-21T12:51:32.648Z,101741.31
2024-01-21T12:53:59.450Z,101739.41
2024-01-21T12:56:26.126Z,101736.97
2024-01-21T12:58:52.808Z,101733.28
2024-01-21T13:01:19.617Z,101736.47
2024-01-21T13:03:47.329Z,101738.28
2024-01-21T13:06:14.107Z,101732.38
2024-01-21T13:08:42.581Z,101736.22
2024-01-21T13:11:09.299Z,101739.13
2024-01-21T13:13:37.025Z,101747.72
2024-01-21T13:16:05.481Z,101748.47
2024-01-21T13:18:32.139Z,101744.38
2024-01-21T13:20:58.965Z,101748.22
2024-01-21T13:23:26.099Z,101749.25
2024-01-21T13:25:52.950Z,101743.63
2024-01-21T13:28:29.367Z,101735.31
2024-01-21T13:30:56.798Z,101743.50
2024-01-21T13:33:26.070Z,101744.28
2024-01-21T13:35:54.125Z,101747.97
2024-01-21T13:38:22.635Z,101732.63
2024-01-21T13:40:49.656Z,101740.44
2024-01-21T13:43:16.315Z,101736.34
2024-01-21T13:45:43.270Z,101733.16
2024-01-21T13:48:12.126Z,101736.75
2024-01-21T13:50:42.096Z,101733.16
2024-01-21T13:53:11.961Z,101729.31
2024-01-21T13:55:39.058Z,101731.38
2024-01-21T13:58:06.324Z,101731.00
2024-01-21T14:00:33.689Z,101734.66
2024-01-21T14:03:02.082Z,101729.94
2024-01-21T14:05:29.751Z,101724.97
2024-01-21T14:07:56.526Z,101717.31
2024-01-21T14:10:23.881Z,101721.38
2024-01-21T14:12:51.815Z,101731.22
2024-01-21T14:15:18.464Z,101736.84
2024-01-21T14:17:45.016Z,101729.81
2024-01-21T14:20:14.472Z,101742.47
2024-01-21T14:22:42.110Z,101748.06
2024-01-21T14:25:26.984Z,101752.41
2024-01-21T14:27:53.665Z,101756.38
2024-01-21T14:30:30.764Z,101765.56
2024-01-21T14:32:58.135Z,101768.09
2024-01-21T14:35:24.874Z,101769.09
2024-01-21T14:37:51.676Z,101776.75
2024-01-21T14:40:18.156Z,101775.88
2024-01-21T14:42:44.853Z,101771.53
2024-01-21T14:45:11.713Z,101765.91
2024-01-21T14:47:38.572Z,101770.38
2024-01-21T14:50:05.650Z,101776.22
2024-01-21T14:52:32.200Z,101772.38
2024-01-21T14:54:59.397Z,101771.72
2024-01-21T14:57:26.423Z,101777.59
2024-01-21T14:59:53.731Z,101792.28
2024-01-21T15:02:20.362Z,101793.69
2024-01-21T15:04:46.933Z,101798.84
2024-01-21T15:07:13.669Z,101793.50
2024-01-21T15:09:40.483Z,101799.09
2024-01-21T15:12:07.678Z,101804.94
2024-01-21T15:14:45.833Z,101800.06
2024-01-21T15:17:14.597Z,101801.69
2024-01-21T15:19:46.609Z,101808.09
2024-01-21T15:22:14.097Z,101807.72
2024-01-21T15:24:41.752Z,101814.75
2024-01-21T15:27:09.037Z,101805.94
2024-01-21T15:29:36.649Z,101804.22
2024-01-21T15:32:03.149Z,101817.19
2024-01-21T15:34:30.173Z,101825.31
2024-01-21T15:36:56.854Z,101825.50
2024-01-21T15:39:23.459Z,101829.16
2024-01-21T15:41:50.168Z,101833.72
2024-01-21T15:44:16.898Z,101832.56
2024-01-21T15:46:47.028Z,101838.38
2024-01-21T15:49:14.262Z,101829.84
2024-01-21T15:51:42.288Z,101820.63
2024-01-21T15:54:10.633Z,101832.94
2024-01-21T15:56:37.737Z,101842.41
2024-01-21T15:59:05.022Z,101831.09
2024-01-21T16:01:32.063Z,101840.53
2024-01-21T16:03:59.440Z,101839.84
2024-01-21T16:06:26.425Z,101847.19
2024-01-21T16:08:53.529Z,101850.66
2024-01-21T16:11:20.546Z,101857.41
2024-01-21T16:13:47.167Z,101848.13
2024-01-21T16:16:13.871Z,101853.88
2024-01-21T16:18:40.510Z,101859.25
2024-01-21T16:21:09.579Z,101860.38
2024-01-21T16:23:36.573Z,101850.31
2024-01-21T16:26:03.141Z,101853.34
2024-01-21T16:28:29.624Z,101859.94
2024-01-21T16:30:56.226Z,101861.25
2024-01-21T16:33:24.758Z,101859.66
2024-01-21T16:35:52.231Z,101867.31
2024-01-21T16:38:19.153Z,101871.03
2024-01-21T16:40:45.743Z,101868.97
2024-01-21T16:43:12.518Z,101866.56
2024-01-21T16:45:39.216Z,101877.66
2024-01-21T16:48:06.429Z,101875.56
2024-01-21T16:50:33.065Z,101874.09
2024-01-21T16:53:14.154Z,101880.94
2024-01-21T16:55:43.683Z,101883.31
2024-01-21T16:58:10.634Z,101884.81
2024-01-21T17:00:42.325Z,101887.53
2024-01-21T17:03:10.519Z,101900.66
2024-01-21T17:05:37.089Z,101900.38
2024-01-21T17:08:05.247Z,101895.00
2024-01-21T17:10:46.465Z,101905.63
2024-01-21T17:13:13.632Z,101899.75
2024-01-21T17:15:40.221Z,101905.28
2024-01-21T17:18:16.931Z,101904.25
2024-01-21T17:20:43.627Z,101903.34
2024-01-21T17:23:10.264Z,101903.94
2024-01-21T17:25:36.736Z,101904.81
2024-01-21T17:28:03.400Z,101904.50
2024-01-21T17:30:30.580Z,101897.16
2024-01-21T17:32:57.176Z,101893.69
2024-01-21T17:35:23.715Z,101898.59
2024-01-21T17:37:50.224Z,101905.75
2024-01-21T17:40:17.345Z,101905.31
2024-01-21T17:42:44.081Z,101901.97
2024-01-21T17:45:12.752Z,101909.81
2024-01-21T17:47:40.275Z,101915.44
2024-01-21T17:50:07.656Z,101908.31
2024-01-21T17:52:34.484Z,101912.38
2024-01-21T17:55:01.568Z,101910.03
2024-01-21T17:57:31.489Z,101912.22
2024-01-21T17:59:58.241Z,101911.28
2024-01-21T18:02:24.804Z,101925.25
2024-01-21T18:04:52.356Z,101916.09
2024-01-21T18:07:20.363Z,101921.50
2024-01-21T18:09:46.892Z,101916.91
2024-01-21T18:12:13.439Z,101908.69
2024-01-21T18:14:40.015Z,101903.31
2024-01-21T18:17:06.554Z,101895.22
2024-01-21T18:19:34.120Z,101903.69
2024-01-21T18:22:00.970Z,101908.88
2024-01-21T18:24:27.457Z,101908.53
2024-01-21T18:26:54.387Z,101914.47
2024-01-21T18:29:30.293Z,101913.72
2024-01-21T18:32:05.422Z,101932.38
2024-01-21T18:34:33.415Z,101925.34
2024-01-21T18:37:03.038Z,101925.78
2024-01-21T18:39:30.682Z,101930.53
2024-01-21T18:41:57.934Z,101934.72
2024-01-21T18:44:24.606Z,101928.56
2024-01-21T18:46:53.046Z,101934.84
2024-01-21T18:49:20.221Z,101928.09
2024-01-21T18:51:48.104Z,101922.19
2024-01-21T18:54:15.371Z,101935.00
2024-01-21T18:56:42.010Z,101933.81
2024-01-21T18:59:09.640Z,101940.44
2024-01-21T19:01:36.283Z,101934.88
2024-01-21T19:04:02.985Z,101926.28
2024-01-21T19:06:29.769Z,101920.78
2024-01-21T19:08:56.695Z,101920.50
2024-01-21T19:11:23.453Z,101919.44
2024-01-21T19:13:51.291Z,101920.88
2024-01-21T19:16:17.728Z,101918.53
2024-01-21T19:18:46.801Z,101922.34
2024-01-21T19:21:15.542Z,101914.22
2024-01-21T19:23:42.493Z,101918.69
2024-01-21T19:26:13.730Z,101920.25
2024-01-21T19:28:40.437Z,101913.69
2024-01-21T19:31:07.021Z,101918.19
2024-01-21T19:33:33.665Z,101903.13
2024-01-21T19:36:00.695Z,101906.44
2024-01-21T19:38:27.297Z,101891.06
2024-01-21T19:40:53.901Z,101887.19
2024-01-21T19:43:23.575Z,101888.69
2024-01-21T19:45:50.461Z,101877.78
2024-01-21T19:48:17.167Z,101883.59
2024-01-21T19:50:46.585Z,101891.31
2024-01-21T19:53:13.331Z,101891.31
2024-01-21T19:55:40.276Z,101894.00
2024-01-21T19:58:06.869Z,101893.34
2024-01-21T20:00:33.478Z,101902.72
2024-01-21T20:03:00.130Z,101906.56
2024-01-21T20:05:26.842Z,101899.44
2024-01-21T20:07:53.347Z,101903.88
2024-01-21T20:10:21.154Z,101902.06
2024-01-21T20:12:47.585Z,101906.31
2024-01-21T20:15:14.344Z,101909.34
2024-01-21T20:17:40.936Z,101901.75
2024-01-21T20:20:07.893Z,101898.38
2024-01-21T20:22:34.483Z,101894.94
2024-01-21T20:25:01.279Z,101889.44
2024-01-21T20:27:27.865Z,101894.84
2024-01-21T20:29:54.910Z,101901.06
2024-01-21T20:32:21.557Z,101901.47
2024-01-21T20:34:49.213Z,101904.00
2024-01-21T20:37:15.752Z,101892.34
2024-01-21T20:39:42.199Z,101907.31
2024-01-21T20:42:14.766Z,101907.38
2024-01-21T20:44:41.439Z,101899.00
2024-01-21T20:47:07.940Z,101893.06
2024-01-21T20:49:36.192Z,101898.22
2024-01-21T20:52:02.868Z,101902.53
2024-01-21T20:54:39.067Z,101905.72
2024-01-21T20:57:06.608Z,101918.16
2024-01-21T20:59:33.118Z,101913.16
2024-01-21T21:01:59.599Z,101917.22
2024-01-21T21:04:26.102Z,101921.09
2024-01-21T21:06:52.825Z,101908.97
2024-01-21T21:09:19.423Z,101916.59
2024-01-21T21:11:46.004Z,101918.16
2024-01-21T21:14:13.228Z,101911.44
2024-01-21T21:16:39.864Z,101910.53
2024-01-21T21:19:06.577Z,101897.63
2024-01-21T21:21:33.331Z,101892.69
2024-01-21T21:24:00.672Z,101876.91
2024-01-21T21:26:27.206Z,101873.56
2024-01-21T21:28:53.753Z,101877.63
2024-01-21T21:31:20.264Z,101883.81
2024-01-21T21:33:47.046Z,101891.47
2024-01-21T21:36:13.859Z,101895.84
2024-01-21T21:38:40.469Z,101903.72
2024-01-21T21:41:09.933Z,101903.44
2024-01-21T21:43:38.667Z,101909.66
2024-01-21T21:46:05.496Z,101904.84
2024-01-21T21:48:32.181Z,101899.31
2024-01-21T21:50:58.862Z,101894.44
2024-01-21T21:53:26.308Z,101895.69
2024-01-21T21:55:53.664Z,101892.47
2024-01-21T21:58:20.261Z,101897.88
2024-01-21T22:00:48.051Z,101896.47
2024-01-21T22:03:15.621Z,101893.28
2024-01-21T22:05:43.411Z,101905.41
2024-01-21T22:08:11.522Z,101891.75
2024-01-21T22:10:38.094Z,101881.19
2024-01-21T22:13:04.875Z,101878.47
2024-01-21T22:15:32.912Z,101873.69
2024-01-21T22:17:59.548Z,101864.63
2024-01-21T22:20:26.353Z,101864.25
2024-01-21T22:22:52.898Z,101866.94
2024-01-21T22:25:19.645Z,101856.66
2024-01-21T22:27:46.379Z,101858.84
2024-01-21T22:30:13.474Z,101863.50
2024-01-21T22:32:40.116Z,101871.66
2024-01-21T22:35:06.936Z,101878.00
2024-01-21T22:37:34.109Z,101872.53
2024-01-21T22:40:00.711Z,101864.13
2024-01-21T22:42:27.206Z,101870.94
2024-01-21T22:44:53.842Z,101860.53
2024-01-21T22:47:20.400Z,101864.88
2024-01-21T22:49:46.887Z,101859.25
2024-01-21T22:52:13.913Z,101861.78
2024-01-21T22:54:40.389Z,101854.00
2024-01-21T22:57:06.978Z,101860.53
2024-01-21T22:59:34.320Z,101863.41
2024-01-21T23:02:00.967Z,101872.97
2024-01-21T23:04:27.468Z,101875.19
2024-01-21T23:06:54.965Z,101872.47
2024-01-21T23:09:21.504Z,101875.00
2024-01-21T23:11:47.998Z,101878.53
2024-01-21T23:14:14.679Z,101886.06
2024-01-21T23:16:41.246Z,101875.44
2024-01-21T23:19:08.313Z,101872.47
2024-01-21T23:21:34.874Z,101873.13
2024-01-21T23:24:01.455Z,101863.00
2024-01-21T23:26:28.025Z,101875.09
2024-01-21T23:28:54.532Z,101886.84
2024-01-21T23:31:21.073Z,101891.88
2024-01-21T23:33:47.736Z,101892.34
2024-01-21T23:36:14.548Z,101896.94
2024-01-21T23:38:41.485Z,101888.88
2024-01-21T23:41:08.644Z,101878.44
2024-01-21T23:43:35.102Z,101878.28
2024-01-21T23:46:04.945Z,101884.94
2024-01-21T23:48:34.412Z,101875.56
2024-01-21T23:51:01.521Z,101876.63
2024-01-21T23:53:28.084Z,101884.25
2024-01-21T23:55:55.173Z,101887.53
2024-01-21T23:58:21.791Z,101871.44
